This is the latest recevied weather packets stored in our database for station/object W2MMD-13. If no packets are shown the sender has not sent any weather packets the latest 1 day(s).
| Time | Temp. | Humidity | Pressure | Rain* | Wind** | Luminosity | Snow |
|---|---|---|---|---|---|---|---|
| 1778029132 | 20.56° C | 66% | - | 0 mm | - | - | - |
| 1778029119 | 20.56° C | 66% | - | 0 mm | - | - | - |
| 1778028519 | 21.11° C | 65% | - | 0 mm | - | - | - |
| 1778027932 | 21.11° C | 63% | - | 0 mm | - | - | - |
| 1778027919 | 21.11° C | 63% | - | 0 mm | - | - | - |
| 1778027319 | 21.67° C | 61% | - | 0 mm | - | - | - |
| 1778026732 | 21.67° C | 58% | - | 0 mm | - | - | - |
| 1778026719 | 21.67° C | 58% | - | 0 mm | - | - | - |
| 1778024920 | 23.33° C | 53% | - | 0 mm | - | - | - |
| 1778024320 | 23.89° C | 50% | - | 0 mm | - | - | - |
| 1778021920 | 25.56° C | 43% | - | 0 mm | - | - | - |
| 1778021320 | 26.11° C | 42% | - | 0 mm | - | - | - |
| 1778020720 | 26.67° C | 42% | - | 0 mm | - | - | - |
| 1778020120 | 26.67° C | 42% | - | 0 mm | - | - | - |
| 1778019520 | 26.11° C | 43% | - | 0 mm | - | - | - |
| 1778018920 | 26.11° C | 43% | - | 0 mm | - | - | - |
| 1778018320 | 26.67° C | 42% | - | 0 mm | - | - | - |
| 1778013533 | 27.78° C | 37% | - | 0 mm | - | - | - |
| 1778002720 | 27.78° C | 43% | - | 0 mm | - | - | - |
| 1778001642 | 27.78° C | 44% | - | 0 mm | - | - | - |
| 1778000920 | 27.22° C | 45% | - | 0 mm | - | - | - |
* Rain latest hour (hover to see other rain measurements)
** Current wind speed in m/s (hover to see current wind gust speed)